KAOH

Lima Allen County Airport

Lima, Ohio, USA
METAR KAOH 211253Z AUTO 31010KT 6SM -RA BR OVC005 07/07 A3027 RMK AO2 PRESRR SLP249 P0004 T00720072
Observed Flight Rules
Feb-21 @ 12:53 UTC (24 minutes ago) Instrument Flight Rules
Wind Visibility Clouds Conditions
310° at 10 knots 6 miles
  • Overcast at 500' AGL
  • Light Rain
  • Mist
Temperatures Readings Precipitation
Current 7°C / 45°F
Dewpoint 7°C / 45°F
Humidity 100%
Altimeter 30.27" Hg
Pressure 1024.9 hPa
Elevation 296
Current Rain 0.04
METAR KAOH 211253Z AUTO 31010KT 6SM -RA BR OVC005 07/07 A3027 RMK AO2 PRESRR SLP249 P0004 T00720072
Observed Flight Rules
Feb-21 @ 12:53 UTC
(24 minutes ago)
IFR
Wind Visibility
310° at 10 knots 6 miles
Clouds
  • Overcast at 500' AGL
Conditions
  • Light Rain
  • Mist
Temperature Dewpoint
7°C / 45°F 7°C / 45°F
Humidity Altimeter Pressure
100% 30.27" Hg 1024.9 hPa
Current Rain
0.04